Hornepayne, Canada
Current Conditions -  °F | °C
As of 5:00 PM on Wednesday 26 Nov 2014 (Local Time) from CYSP Reporting Station
Light Snow Light Snow  
Wind Chill: -23°   Ceiling: 900
Heat Index: -14°   Visibility: 0.75mi
Dew Point: -17°   Wind: 13mph
Humidity: 79%   Direction: 50°NE
Pressure: 30.19"   Gusts: 23mph
Location:  49.22°N, 84.78°W
Report Text: CYSP 262200Z 05011G20KT 3/4SM -SN OVC009 M14/M17 A3019 RMK SN6SC2 /S04/ LAST OBS/NEXT 271300UTC SLP254
Loading
Personal Weather Stations






























Interactive Weather Map New forecast layout! Learn more

10-Day Weather Forecast

Advertisements
Track Severe Weather on mobile